sensor_id;sensor_type;location;lat;lon;timestamp;pressure;altitude;pressure_sealevel;temperature;humidity
68793;BME280;55778;54.346;10.210;2022-10-31T00:00:49;101470.06;;;10.96;100.00
68793;BME280;55778;54.346;10.210;2022-10-31T00:03:16;101474.84;;;10.83;100.00
68793;BME280;55778;54.346;10.210;2022-10-31T00:05:43;101477.59;;;10.72;100.00
68793;BME280;55778;54.346;10.210;2022-10-31T00:08:08;101477.56;;;10.83;100.00
68793;BME280;55778;54.346;10.210;2022-10-31T00:10:37;101474.19;;;10.90;100.00
68793;BME280;55778;54.346;10.210;2022-10-31T00:13:03;101471.00;;;11.06;100.00
68793;BME280;55778;54.346;10.210;2022-10-31T00:15:28;101476.69;;;11.14;100.00
68793;BME280;55778;54.346;10.210;2022-10-31T00:17:53;101480.56;;;11.32;100.00
68793;BME280;55778;54.346;10.210;2022-10-31T00:20:19;101469.91;;;11.29;100.00
68793;BME280;55778;54.346;10.210;2022-10-31T00:22:44;101479.81;;;11.50;100.00
68793;BME280;55778;54.346;10.210;2022-10-31T00:25:09;101489.78;;;11.61;100.00
68793;BME280;55778;54.346;10.210;2022-10-31T00:27:35;101478.81;;;11.72;100.00
68793;BME280;55778;54.346;10.210;2022-10-31T00:30:00;101486.63;;;11.86;100.00
68793;BME280;55778;54.346;10.210;2022-10-31T00:32:28;101485.28;;;12.01;100.00
68793;BME280;55778;54.346;10.210;2022-10-31T00:34:55;101487.06;;;12.12;100.00
68793;BME280;55778;54.346;10.210;2022-10-31T00:37:20;101489.22;;;12.18;100.00
68793;BME280;55778;54.346;10.210;2022-10-31T00:39:45;101484.66;;;12.28;100.00
68793;BME280;55778;54.346;10.210;2022-10-31T00:42:14;101488.41;;;12.27;100.00
68793;BME280;55778;54.346;10.210;2022-10-31T00:44:39;101484.94;;;12.25;100.00
68793;BME280;55778;54.346;10.210;2022-10-31T00:47:04;101482.94;;;12.27;100.00
68793;BME280;55778;54.346;10.210;2022-10-31T00:49:30;101475.75;;;12.35;100.00
68793;BME280;55778;54.346;10.210;2022-10-31T00:51:55;101489.41;;;12.35;100.00
68793;BME280;55778;54.346;10.210;2022-10-31T00:54:21;101493.00;;;12.26;100.00
68793;BME280;55778;54.346;10.210;2022-10-31T00:56:46;101482.94;;;12.27;100.00
68793;BME280;55778;54.346;10.210;2022-10-31T00:59:11;101488.69;;;12.24;100.00
68793;BME280;55778;54.346;10.210;2022-10-31T01:01:37;101490.53;;;12.23;100.00
68793;BME280;55778;54.346;10.210;2022-10-31T01:04:02;101491.00;;;12.28;100.00
68793;BME280;55778;54.346;10.210;2022-10-31T01:06:27;101494.72;;;12.27;100.00
68793;BME280;55778;54.346;10.210;2022-10-31T01:08:53;101496.47;;;12.28;100.00
68793;BME280;55778;54.346;10.210;2022-10-31T01:11:21;101494.34;;;12.41;100.00
68793;BME280;55778;54.346;10.210;2022-10-31T01:13:50;101493.31;;;12.42;100.00
68793;BME280;55778;54.346;10.210;2022-10-31T01:16:17;101487.84;;;12.42;100.00
68793;BME280;55778;54.346;10.210;2022-10-31T01:18:43;101492.44;;;12.32;100.00
68793;BME280;55778;54.346;10.210;2022-10-31T01:21:11;101495.50;;;12.39;100.00
68793;BME280;55778;54.346;10.210;2022-10-31T01:23:37;101496.31;;;12.39;100.00
68793;BME280;55778;54.346;10.210;2022-10-31T01:26:17;101492.28;;;12.34;100.00
68793;BME280;55778;54.346;10.210;2022-10-31T01:28:49;101498.91;;;12.31;100.00
68793;BME280;55778;54.346;10.210;2022-10-31T01:31:16;101487.09;;;12.31;100.00
68793;BME280;55778;54.346;10.210;2022-10-31T01:33:42;101482.81;;;12.38;100.00
68793;BME280;55778;54.346;10.210;2022-10-31T01:36:21;101489.28;;;12.37;100.00
68793;BME280;55778;54.346;10.210;2022-10-31T01:38:47;101481.09;;;12.37;100.00
68793;BME280;55778;54.346;10.210;2022-10-31T01:41:15;101478.03;;;12.30;100.00
68793;BME280;55778;54.346;10.210;2022-10-31T01:46:22;101505.91;;;12.24;100.00
68793;BME280;55778;54.346;10.210;2022-10-31T01:48:50;101502.81;;;12.38;100.00
68793;BME280;55778;54.346;10.210;2022-10-31T01:51:17;101507.59;;;12.46;100.00
68793;BME280;55778;54.346;10.210;2022-10-31T01:53:45;101514.94;;;12.55;100.00
68793;BME280;55778;54.346;10.210;2022-10-31T01:56:13;101510.03;;;12.58;100.00
68793;BME280;55778;54.346;10.210;2022-10-31T01:58:40;101510.31;;;12.46;100.00
68793;BME280;55778;54.346;10.210;2022-10-31T02:01:06;101513.75;;;12.48;100.00
68793;BME280;55778;54.346;10.210;2022-10-31T02:03:32;101522.84;;;12.48;100.00
68793;BME280;55778;54.346;10.210;2022-10-31T02:05:58;101525.31;;;12.61;100.00
68793;BME280;55778;54.346;10.210;2022-10-31T02:10:49;101529.13;;;12.79;100.00
68793;BME280;55778;54.346;10.210;2022-10-31T02:13:15;101530.13;;;12.87;100.00
68793;BME280;55778;54.346;10.210;2022-10-31T02:15:44;101532.88;;;12.87;100.00
68793;BME280;55778;54.346;10.210;2022-10-31T02:18:10;101532.44;;;12.92;100.00
68793;BME280;55778;54.346;10.210;2022-10-31T02:20:42;101533.13;;;12.94;100.00
68793;BME280;55778;54.346;10.210;2022-10-31T02:26:11;101542.78;;;12.88;100.00
68793;BME280;55778;54.346;10.210;2022-10-31T02:31:33;101537.03;;;12.91;100.00
68793;BME280;55778;54.346;10.210;2022-10-31T02:34:18;101536.88;;;12.93;100.00
68793;BME280;55778;54.346;10.210;2022-10-31T02:39:18;101531.84;;;12.88;100.00
68793;BME280;55778;54.346;10.210;2022-10-31T02:45:21;101530.69;;;12.81;100.00
68793;BME280;55778;54.346;10.210;2022-10-31T02:47:38;101542.06;;;12.77;100.00
68793;BME280;55778;54.346;10.210;2022-10-31T02:50:21;101543.63;;;12.79;100.00
68793;BME280;55778;54.346;10.210;2022-10-31T02:52:51;101546.94;;;12.73;100.00
68793;BME280;55778;54.346;10.210;2022-10-31T02:58:14;101555.72;;;12.77;100.00
68793;BME280;55778;54.346;10.210;2022-10-31T03:10:04;101573.44;;;12.73;100.00
68793;BME280;55778;54.346;10.210;2022-10-31T03:12:38;101586.78;;;12.66;100.00
68793;BME280;55778;54.346;10.210;2022-10-31T03:15:16;101576.72;;;12.67;100.00
68793;BME280;55778;54.346;10.210;2022-10-31T03:17:55;101579.13;;;12.60;100.00
68793;BME280;55778;54.346;10.210;2022-10-31T03:20:28;101582.16;;;12.57;100.00
68793;BME280;55778;54.346;10.210;2022-10-31T03:22:56;101583.03;;;12.58;100.00
68793;BME280;55778;54.346;10.210;2022-10-31T03:25:22;101583.31;;;12.55;100.00
68793;BME280;55778;54.346;10.210;2022-10-31T03:27:49;101575.94;;;12.55;100.00
68793;BME280;55778;54.346;10.210;2022-10-31T03:30:16;101585.28;;;12.53;100.00
68793;BME280;55778;54.346;10.210;2022-10-31T03:32:49;101582.09;;;12.48;100.00
68793;BME280;55778;54.346;10.210;2022-10-31T03:35:19;101589.72;;;12.44;100.00
68793;BME280;55778;54.346;10.210;2022-10-31T03:37:48;101580.50;;;12.45;100.00
68793;BME280;55778;54.346;10.210;2022-10-31T03:40:15;101594.19;;;12.45;100.00
68793;BME280;55778;54.346;10.210;2022-10-31T03:43:04;101596.75;;;12.37;100.00
68793;BME280;55778;54.346;10.210;2022-10-31T03:45:35;101604.34;;;12.34;100.00
68793;BME280;55778;54.346;10.210;2022-10-31T03:48:01;101608.13;;;12.42;100.00
68793;BME280;55778;54.346;10.210;2022-10-31T03:50:35;101606.06;;;12.35;100.00
68793;BME280;55778;54.346;10.210;2022-10-31T03:53:14;101607.03;;;12.24;100.00
68793;BME280;55778;54.346;10.210;2022-10-31T03:55:49;101622.59;;;12.24;100.00
68793;BME280;55778;54.346;10.210;2022-10-31T03:58:24;101618.28;;;12.31;100.00
68793;BME280;55778;54.346;10.210;2022-10-31T04:00:51;101622.97;;;12.19;100.00
68793;BME280;55778;54.346;10.210;2022-10-31T04:03:22;101620.25;;;12.19;100.00
68793;BME280;55778;54.346;10.210;2022-10-31T04:05:51;101625.84;;;12.18;100.00
68793;BME280;55778;54.346;10.210;2022-10-31T04:08:20;101638.78;;;12.16;100.00
68793;BME280;55778;54.346;10.210;2022-10-31T04:10:49;101643.84;;;12.20;100.00
68793;BME280;55778;54.346;10.210;2022-10-31T04:13:20;101638.78;;;12.16;100.00
68793;BME280;55778;54.346;10.210;2022-10-31T04:15:49;101634.34;;;12.24;100.00
68793;BME280;55778;54.346;10.210;2022-10-31T04:18:15;101641.50;;;12.16;100.00
68793;BME280;55778;54.346;10.210;2022-10-31T04:20:41;101639.44;;;12.08;100.00
68793;BME280;55778;54.346;10.210;2022-10-31T04:23:33;101652.25;;;12.07;100.00
68793;BME280;55778;54.346;10.210;2022-10-31T04:25:58;101645.13;;;12.16;100.00
68793;BME280;55778;54.346;10.210;2022-10-31T04:28:24;101658.03;;;12.14;100.00
68793;BME280;55778;54.346;10.210;2022-10-31T04:30:49;101654.69;;;12.10;100.00
68793;BME280;55778;54.346;10.210;2022-10-31T04:33:15;101656.88;;;12.17;100.00
68793;BME280;55778;54.346;10.210;2022-10-31T04:35:40;101654.34;;;12.25;100.00
68793;BME280;55778;54.346;10.210;2022-10-31T04:38:06;101660.50;;;12.17;100.00
68793;BME280;55778;54.346;10.210;2022-10-31T04:40:31;101668.44;;;12.20;100.00
68793;BME280;55778;54.346;10.210;2022-10-31T04:43:00;101672.31;;;12.18;100.00
68793;BME280;55778;54.346;10.210;2022-10-31T04:45:25;101659.63;;;12.17;100.00
68793;BME280;55778;54.346;10.210;2022-10-31T04:47:50;101658.25;;;12.22;100.00
68793;BME280;55778;54.346;10.210;2022-10-31T04:50:16;101666.75;;;12.29;100.00
68793;BME280;55778;54.346;10.210;2022-10-31T04:52:45;101660.31;;;12.30;100.00
68793;BME280;55778;54.346;10.210;2022-10-31T04:55:12;101658.13;;;12.33;100.00
68793;BME280;55778;54.346;10.210;2022-10-31T04:57:48;101653.88;;;12.40;100.00
68793;BME280;55778;54.346;10.210;2022-10-31T05:00:17;101659.22;;;12.42;100.00
68793;BME280;55778;54.346;10.210;2022-10-31T05:02:44;101668.88;;;12.46;100.00
68793;BME280;55778;54.346;10.210;2022-10-31T05:05:11;101664.81;;;12.40;100.00
68793;BME280;55778;54.346;10.210;2022-10-31T05:07:43;101668.66;;;12.38;100.00
68793;BME280;55778;54.346;10.210;2022-10-31T05:10:11;101674.09;;;12.28;100.00
68793;BME280;55778;54.346;10.210;2022-10-31T05:12:37;101663.03;;;12.30;100.00
68793;BME280;55778;54.346;10.210;2022-10-31T05:15:10;101654.84;;;12.30;100.00
68793;BME280;55778;54.346;10.210;2022-10-31T05:17:35;101659.03;;;12.34;100.00
68793;BME280;55778;54.346;10.210;2022-10-31T05:20:01;101666.44;;;12.22;100.00
68793;BME280;55778;54.346;10.210;2022-10-31T05:22:26;101665.56;;;12.22;100.00
68793;BME280;55778;54.346;10.210;2022-10-31T05:24:51;101659.09;;;12.23;100.00
68793;BME280;55778;54.346;10.210;2022-10-31T05:27:17;101660.72;;;12.25;100.00
68793;BME280;55778;54.346;10.210;2022-10-31T05:29:42;101674.28;;;12.16;100.00
68793;BME280;55778;54.346;10.210;2022-10-31T05:32:07;101672.97;;;12.10;100.00
68793;BME280;55778;54.346;10.210;2022-10-31T05:34:33;101671.50;;;12.06;100.00
68793;BME280;55778;54.346;10.210;2022-10-31T05:36:58;101682.19;;;12.09;100.00
68793;BME280;55778;54.346;10.210;2022-10-31T05:39:24;101678.09;;;12.03;100.00
68793;BME280;55778;54.346;10.210;2022-10-31T05:41:49;101674.50;;;12.03;100.00
68793;BME280;55778;54.346;10.210;2022-10-31T05:44:14;101684.03;;;12.08;100.00
68793;BME280;55778;54.346;10.210;2022-10-31T05:46:40;101677.28;;;12.13;100.00
68793;BME280;55778;54.346;10.210;2022-10-31T05:49:05;101684.16;;;12.28;100.00
68793;BME280;55778;54.346;10.210;2022-10-31T05:51:31;101684.22;;;12.17;100.00
68793;BME280;55778;54.346;10.210;2022-10-31T05:53:56;101684.09;;;12.18;100.00
68793;BME280;55778;54.346;10.210;2022-10-31T05:56:21;101682.75;;;12.13;100.00
68793;BME280;55778;54.346;10.210;2022-10-31T05:58:47;101678.84;;;12.05;100.00
68793;BME280;55778;54.346;10.210;2022-10-31T06:01:12;101686.09;;;12.16;100.00
68793;BME280;55778;54.346;10.210;2022-10-31T06:03:37;101688.44;;;12.21;100.00
68793;BME280;55778;54.346;10.210;2022-10-31T06:06:03;101689.28;;;12.21;100.00
68793;BME280;55778;54.346;10.210;2022-10-31T06:08:28;101692.53;;;12.15;100.00
68793;BME280;55778;54.346;10.210;2022-10-31T06:10:54;101688.69;;;12.18;100.00
68793;BME280;55778;54.346;10.210;2022-10-31T06:13:19;101691.88;;;12.23;100.00
68793;BME280;55778;54.346;10.210;2022-10-31T06:15:45;101687.81;;;12.17;100.00
68793;BME280;55778;54.346;10.210;2022-10-31T06:18:10;101696.28;;;12.14;100.00
68793;BME280;55778;54.346;10.210;2022-10-31T06:20:35;101690.16;;;12.22;100.00
68793;BME280;55778;54.346;10.210;2022-10-31T06:23:01;101693.38;;;12.27;100.00
68793;BME280;55778;54.346;10.210;2022-10-31T06:25:27;101688.16;;;12.24;100.00
68793;BME280;55778;54.346;10.210;2022-10-31T06:27:53;101689.16;;;12.23;100.00
68793;BME280;55778;54.346;10.210;2022-10-31T06:30:19;101700.94;;;12.23;100.00
68793;BME280;55778;54.346;10.210;2022-10-31T06:32:44;101700.22;;;12.21;100.00
68793;BME280;55778;54.346;10.210;2022-10-31T06:35:10;101699.22;;;12.22;100.00
68793;BME280;55778;54.346;10.210;2022-10-31T06:37:36;101701.97;;;12.22;100.00
68793;BME280;55778;54.346;10.210;2022-10-31T06:40:01;101703.34;;;12.17;100.00
68793;BME280;55778;54.346;10.210;2022-10-31T06:42:27;101702.88;;;12.12;100.00
68793;BME280;55778;54.346;10.210;2022-10-31T06:44:52;101714.41;;;12.15;100.00
68793;BME280;55778;54.346;10.210;2022-10-31T06:47:18;101722.81;;;12.23;100.00
68793;BME280;55778;54.346;10.210;2022-10-31T06:49:43;101720.88;;;12.14;100.00
68793;BME280;55778;54.346;10.210;2022-10-31T06:52:08;101724.75;;;12.12;100.00
68793;BME280;55778;54.346;10.210;2022-10-31T06:54:34;101728.47;;;12.10;100.00
68793;BME280;55778;54.346;10.210;2022-10-31T06:56:59;101731.94;;;12.13;100.00
68793;BME280;55778;54.346;10.210;2022-10-31T06:59:24;101743.47;;;12.16;100.00
68793;BME280;55778;54.346;10.210;2022-10-31T07:01:50;101735.16;;;12.18;100.00
68793;BME280;55778;54.346;10.210;2022-10-31T07:04:15;101739.69;;;12.28;100.00
68793;BME280;55778;54.346;10.210;2022-10-31T07:06:40;101751.16;;;12.22;100.00
68793;BME280;55778;54.346;10.210;2022-10-31T07:09:06;101752.41;;;12.18;100.00
68793;BME280;55778;54.346;10.210;2022-10-31T07:11:31;101755.63;;;12.23;100.00
68793;BME280;55778;54.346;10.210;2022-10-31T07:13:57;101755.28;;;12.37;100.00
68793;BME280;55778;54.346;10.210;2022-10-31T07:16:22;101753.53;;;12.36;100.00
68793;BME280;55778;54.346;10.210;2022-10-31T07:18:47;101759.13;;;12.35;100.00
68793;BME280;55778;54.346;10.210;2022-10-31T07:21:13;101762.66;;;12.26;100.00
68793;BME280;55778;54.346;10.210;2022-10-31T07:23:38;101769.41;;;12.22;100.00
68793;BME280;55778;54.346;10.210;2022-10-31T07:26:04;101766.16;;;12.28;100.00
68793;BME280;55778;54.346;10.210;2022-10-31T07:28:29;101758.56;;;12.31;100.00
68793;BME280;55778;54.346;10.210;2022-10-31T07:30:56;101760.91;;;12.36;100.00
68793;BME280;55778;54.346;10.210;2022-10-31T07:33:24;101761.03;;;12.34;100.00
68793;BME280;55778;54.346;10.210;2022-10-31T07:35:51;101768.34;;;12.34;100.00
68793;BME280;55778;54.346;10.210;2022-10-31T07:38:17;101769.38;;;12.33;100.00
68793;BME280;55778;54.346;10.210;2022-10-31T07:40:42;101776.41;;;12.35;100.00
68793;BME280;55778;54.346;10.210;2022-10-31T07:43:10;101773.69;;;12.35;100.00
68793;BME280;55778;54.346;10.210;2022-10-31T07:45:36;101776.69;;;12.32;100.00
68793;BME280;55778;54.346;10.210;2022-10-31T07:48:01;101777.56;;;12.33;100.00
68793;BME280;55778;54.346;10.210;2022-10-31T07:50:31;101784.50;;;12.37;100.00
68793;BME280;55778;54.346;10.210;2022-10-31T07:53:08;101785.69;;;12.44;100.00
68793;BME280;55778;54.346;10.210;2022-10-31T07:55:34;101777.44;;;12.55;100.00
68793;BME280;55778;54.346;10.210;2022-10-31T07:58:04;101785.75;;;12.53;100.00
68793;BME280;55778;54.346;10.210;2022-10-31T08:00:31;101784.63;;;12.56;100.00
68793;BME280;55778;54.346;10.210;2022-10-31T08:03:01;101777.09;;;12.48;100.00
68793;BME280;55778;54.346;10.210;2022-10-31T08:05:28;101785.03;;;12.51;100.00
68793;BME280;55778;54.346;10.210;2022-10-31T08:07:53;101782.16;;;12.53;100.00
68793;BME280;55778;54.346;10.210;2022-10-31T08:10:19;101782.50;;;12.59;100.00
68793;BME280;55778;54.346;10.210;2022-10-31T08:12:44;101783.78;;;12.85;100.00
68793;BME280;55778;54.346;10.210;2022-10-31T08:15:10;101785.63;;;12.75;100.00
68793;BME280;55778;54.346;10.210;2022-10-31T08:17:36;101790.69;;;12.59;100.00
68793;BME280;55778;54.346;10.210;2022-10-31T08:20:02;101787.88;;;12.70;100.00
68793;BME280;55778;54.346;10.210;2022-10-31T08:22:28;101795.03;;;12.62;100.00
68793;BME280;55778;54.346;10.210;2022-10-31T08:24:53;101801.38;;;12.92;100.00
68793;BME280;55778;54.346;10.210;2022-10-31T08:27:18;101805.81;;;12.84;100.00
68793;BME280;55778;54.346;10.210;2022-10-31T08:29:44;101806.47;;;12.76;100.00
68793;BME280;55778;54.346;10.210;2022-10-31T08:32:09;101809.44;;;12.64;100.00
68793;BME280;55778;54.346;10.210;2022-10-31T08:34:34;101811.09;;;12.55;100.00
68793;BME280;55778;54.346;10.210;2022-10-31T08:37:00;101808.56;;;12.63;100.00
68793;BME280;55778;54.346;10.210;2022-10-31T08:39:25;101803.44;;;12.70;100.00
68793;BME280;55778;54.346;10.210;2022-10-31T08:41:50;101808.09;;;12.79;100.00
68793;BME280;55778;54.346;10.210;2022-10-31T08:44:16;101815.03;;;12.83;100.00
68793;BME280;55778;54.346;10.210;2022-10-31T08:46:41;101814.16;;;12.82;100.00
68793;BME280;55778;54.346;10.210;2022-10-31T08:49:07;101815.16;;;12.81;100.00
68793;BME280;55778;54.346;10.210;2022-10-31T08:51:32;101815.09;;;12.72;100.00
68793;BME280;55778;54.346;10.210;2022-10-31T08:53:57;101815.97;;;12.72;100.00
68793;BME280;55778;54.346;10.210;2022-10-31T08:56:23;101816.25;;;12.69;100.00
68793;BME280;55778;54.346;10.210;2022-10-31T08:58:48;101814.56;;;12.78;100.00
68793;BME280;55778;54.346;10.210;2022-10-31T09:01:14;101816.03;;;12.82;100.00
68793;BME280;55778;54.346;10.210;2022-10-31T09:03:39;101815.88;;;13.24;100.00
68793;BME280;55778;54.346;10.210;2022-10-31T09:06:05;101814.09;;;13.14;100.00
68793;BME280;55778;54.346;10.210;2022-10-31T09:08:34;101818.31;;;13.27;100.00
68793;BME280;55778;54.346;10.210;2022-10-31T09:11:00;101812.75;;;12.88;100.00
68793;BME280;55778;54.346;10.210;2022-10-31T09:13:25;101814.50;;;12.89;100.00
68793;BME280;55778;54.346;10.210;2022-10-31T09:15:51;101807.75;;;12.93;100.00
68793;BME280;55778;54.346;10.210;2022-10-31T09:18:19;101814.28;;;13.01;100.00
68793;BME280;55778;54.346;10.210;2022-10-31T09:20:46;101816.72;;;13.25;100.00
68793;BME280;55778;54.346;10.210;2022-10-31T09:23:17;101823.00;;;13.46;100.00
68793;BME280;55778;54.346;10.210;2022-10-31T09:25:43;101821.94;;;13.67;100.00
68793;BME280;55778;54.346;10.210;2022-10-31T09:28:14;101818.13;;;13.49;100.00
68793;BME280;55778;54.346;10.210;2022-10-31T09:30:40;101815.13;;;13.62;100.00
68793;BME280;55778;54.346;10.210;2022-10-31T09:33:10;101815.72;;;13.56;100.00
68793;BME280;55778;54.346;10.210;2022-10-31T09:35:36;101817.56;;;13.16;100.00
68793;BME280;55778;54.346;10.210;2022-10-31T09:38:20;101807.66;;;13.24;100.00
68793;BME280;55778;54.346;10.210;2022-10-31T09:44:08;101819.84;;;13.41;100.00
68793;BME280;55778;54.346;10.210;2022-10-31T09:47:19;101814.16;;;13.33;100.00
68793;BME280;55778;54.346;10.210;2022-10-31T09:50:06;101815.31;;;13.70;100.00
68793;BME280;55778;54.346;10.210;2022-10-31T09:52:40;101822.09;;;13.75;100.00
68793;BME280;55778;54.346;10.210;2022-10-31T09:55:27;101823.06;;;13.55;100.00
68793;BME280;55778;54.346;10.210;2022-10-31T09:57:58;101824.41;;;13.70;100.00
68793;BME280;55778;54.346;10.210;2022-10-31T10:00:24;101817.66;;;13.84;99.49
68793;BME280;55778;54.346;10.210;2022-10-31T10:02:56;101814.16;;;13.72;99.74
68793;BME280;55778;54.346;10.210;2022-10-31T10:05:38;101805.22;;;13.70;100.00
68793;BME280;55778;54.346;10.210;2022-10-31T10:08:24;101812.25;;;13.63;99.73
68793;BME280;55778;54.346;10.210;2022-10-31T10:11:03;101816.81;;;13.44;100.00
68793;BME280;55778;54.346;10.210;2022-10-31T10:18:52;101825.03;;;13.53;100.00
68793;BME280;55778;54.346;10.210;2022-10-31T10:21:27;101833.25;;;13.53;100.00
68793;BME280;55778;54.346;10.210;2022-10-31T10:24:16;101830.53;;;13.53;100.00
68793;BME280;55778;54.346;10.210;2022-10-31T10:26:59;101823.59;;;13.49;100.00
68793;BME280;55778;54.346;10.210;2022-10-31T10:29:38;101828.63;;;13.44;100.00
68793;BME280;55778;54.346;10.210;2022-10-31T10:32:12;101830.19;;;13.37;100.00
68793;BME280;55778;54.346;10.210;2022-10-31T10:34:50;101823.53;;;13.30;100.00
68793;BME280;55778;54.346;10.210;2022-10-31T10:37:24;101818.94;;;13.40;100.00
68793;BME280;55778;54.346;10.210;2022-10-31T10:40:20;101815.09;;;13.13;100.00
68793;BME280;55778;54.346;10.210;2022-10-31T10:42:55;101818.72;;;13.53;100.00
68793;BME280;55778;54.346;10.210;2022-10-31T10:45:41;101822.84;;;13.47;100.00
68793;BME280;55778;54.346;10.210;2022-10-31T10:48:43;101826.19;;;13.51;98.80
68793;BME280;55778;54.346;10.210;2022-10-31T10:51:21;101832.97;;;13.47;99.34
68793;BME280;55778;54.346;10.210;2022-10-31T10:56:40;101829.28;;;13.67;97.32
68793;BME280;55778;54.346;10.210;2022-10-31T10:59:13;101829.03;;;13.79;97.43
68793;BME280;55778;54.346;10.210;2022-10-31T11:01:40;101826.53;;;13.67;96.63
68793;BME280;55778;54.346;10.210;2022-10-31T11:04:24;101826.44;;;13.87;96.92
68793;BME280;55778;54.346;10.210;2022-10-31T11:07:06;101815.38;;;13.98;96.25
68793;BME280;55778;54.346;10.210;2022-10-31T11:09:33;101820.28;;;14.14;94.96
68793;BME280;55778;54.346;10.210;2022-10-31T11:12:00;101815.97;;;14.21;94.12
68793;BME280;55778;54.346;10.210;2022-10-31T11:14:31;101815.13;;;14.30;93.69
68793;BME280;55778;54.346;10.210;2022-10-31T11:17:10;101810.22;;;14.43;93.09
68793;BME280;55778;54.346;10.210;2022-10-31T11:19:36;101807.53;;;13.75;94.79
68793;BME280;55778;54.346;10.210;2022-10-31T11:22:07;101792.84;;;14.14;95.53
68793;BME280;55778;54.346;10.210;2022-10-31T11:24:39;101791.63;;;14.37;93.68
68793;BME280;55778;54.346;10.210;2022-10-31T11:27:23;101802.41;;;14.48;94.08
68793;BME280;55778;54.346;10.210;2022-10-31T11:29:49;101792.75;;;14.54;94.17
68793;BME280;55778;54.346;10.210;2022-10-31T11:32:19;101794.34;;;14.56;92.38
68793;BME280;55778;54.346;10.210;2022-10-31T11:34:47;101802.44;;;14.39;91.64
68793;BME280;55778;54.346;10.210;2022-10-31T11:37:27;101786.25;;;14.55;92.09
68793;BME280;55778;54.346;10.210;2022-10-31T11:39:55;101788.44;;;14.97;89.86
68793;BME280;55778;54.346;10.210;2022-10-31T11:42:51;101781.31;;;15.14;87.77
68793;BME280;55778;54.346;10.210;2022-10-31T11:47:50;101780.66;;;14.93;88.41
68793;BME280;55778;54.346;10.210;2022-10-31T11:50:27;101774.03;;;15.32;86.57
68793;BME280;55778;54.346;10.210;2022-10-31T11:52:54;101771.00;;;14.98;85.61
68793;BME280;55778;54.346;10.210;2022-10-31T11:57:56;101763.53;;;15.18;85.30
68793;BME280;55778;54.346;10.210;2022-10-31T12:00:30;101766.34;;;15.35;85.72
68793;BME280;55778;54.346;10.210;2022-10-31T12:03:25;101767.13;;;15.18;84.16
68793;BME280;55778;54.346;10.210;2022-10-31T12:05:58;101771.59;;;14.92;84.46
68793;BME280;55778;54.346;10.210;2022-10-31T12:08:29;101764.09;;;14.75;86.23
68793;BME280;55778;54.346;10.210;2022-10-31T12:11:14;101765.09;;;14.84;86.29
68793;BME280;55778;54.346;10.210;2022-10-31T12:18:57;101761.59;;;15.01;86.22
68793;BME280;55778;54.346;10.210;2022-10-31T12:43:34;101764.31;;;15.01;84.72
68793;BME280;55778;54.346;10.210;2022-10-31T12:46:01;101761.81;;;15.17;85.33
68793;BME280;55778;54.346;10.210;2022-10-31T12:48:52;101760.16;;;14.97;85.93
68793;BME280;55778;54.346;10.210;2022-10-31T12:53:54;101758.91;;;14.82;86.98
68793;BME280;55778;54.346;10.210;2022-10-31T12:59:09;101751.72;;;14.71;87.85
68793;BME280;55778;54.346;10.210;2022-10-31T13:01:47;101748.91;;;14.81;86.93
68793;BME280;55778;54.346;10.210;2022-10-31T13:06:50;101748.13;;;14.61;86.54
68793;BME280;55778;54.346;10.210;2022-10-31T13:09:54;101741.09;;;14.95;85.36
68793;BME280;55778;54.346;10.210;2022-10-31T13:12:22;101744.47;;;14.80;85.91
68793;BME280;55778;54.346;10.210;2022-10-31T13:14:49;101741.56;;;14.72;87.41
68793;BME280;55778;54.346;10.210;2022-10-31T13:17:38;101737.25;;;14.69;87.62
68793;BME280;55778;54.346;10.210;2022-10-31T13:20:31;101739.41;;;14.85;86.32
68793;BME280;55778;54.346;10.210;2022-10-31T13:23:16;101747.44;;;14.96;86.40
68793;BME280;55778;54.346;10.210;2022-10-31T13:25:51;101738.28;;;15.05;85.36
68793;BME280;55778;54.346;10.210;2022-10-31T13:30:47;101739.88;;;15.07;84.96
68793;BME280;55778;54.346;10.210;2022-10-31T13:33:30;101734.53;;;15.06;85.15
68793;BME280;55778;54.346;10.210;2022-10-31T13:39:21;101740.34;;;14.57;86.66
68793;BME280;55778;54.346;10.210;2022-10-31T13:41:57;101740.94;;;14.51;87.55
68793;BME280;55778;54.346;10.210;2022-10-31T13:44:27;101731.25;;;14.56;88.26
68793;BME280;55778;54.346;10.210;2022-10-31T13:46:55;101725.38;;;14.88;86.08
68793;BME280;55778;54.346;10.210;2022-10-31T13:54:48;101720.22;;;14.75;86.45
68793;BME280;55778;54.346;10.210;2022-10-31T13:57:38;101723.31;;;14.53;85.65
68793;BME280;55778;54.346;10.210;2022-10-31T14:02:45;101705.28;;;14.32;86.87
68793;BME280;55778;54.346;10.210;2022-10-31T14:05:27;101699.25;;;14.28;87.54
68793;BME280;55778;54.346;10.210;2022-10-31T14:07:56;101701.69;;;14.12;88.67
68793;BME280;55778;54.346;10.210;2022-10-31T14:10:30;101697.38;;;14.00;89.58
68793;BME280;55778;54.346;10.210;2022-10-31T14:13:32;101702.56;;;13.74;90.48
68793;BME280;55778;54.346;10.210;2022-10-31T14:16:05;101703.44;;;13.56;91.95
68793;BME280;55778;54.346;10.210;2022-10-31T14:18:39;101700.94;;;13.43;91.79
68793;BME280;55778;54.346;10.210;2022-10-31T14:21:37;101703.50;;;13.35;91.94